KCMY/CMY METAR and TAF weather

Enter ICAO airport designator
Station Type Date Time Source
KCMY METAR 2018/07/21 11:35 UTC NOAA

KCMY 211135Z AUTO 35007KT 10SM OVC012 16/15 A2991 RMK AO2 T01620152


Station Type Date Time Source
KCMY Decoded METAR 2018/07/21 11:35 UTC NOAA

Sparta, Sparta / Fort McCoy Airport, WI, United States (KCMY) 43-57-30N 090-44-16W
Jul 21, 2018 - 07:35 AM EDT / 2018.07.21 1135 UTC
Wind: from the N (350 degrees) at 8 MPH (7 KT):0
Visibility: 10 mile(s):0
Sky conditions: overcast
Temperature: 61.2 F (16.2 C)
Dew Point: 59.4 F (15.2 C)
Relative Humidity: 93%
Pressure (altimeter): 29.91 in. Hg (1012 hPa)
ob: KCMY 211135Z AUTO 35007KT 10SM OVC012 16/15 A2991 RMK AO2 T01620152
cycle: 11

Station Type Date Time Source
KCMY TAF UTC NOAA

Error!


Example: see airport list